Tallahassee Regional Airport
KTLH : rendu visible

Aérodrome :











RETROUVEZ-NOUS SUR...

 
LOGIN :

S'inscrire | Disclaimer

   EN    FR    IT 

 









Légende :    VFR   VFR Marginal   IFR   IFR Intensif   IFR Très Intensif
Visi : 
Plafond : 
>= 8 km
>= 3000ft
5 à 8 km
1000 à 3000 ft
1500m à 5 km
500 à 1000 ft
800 à 1500m
200 à 500 ft
< 800m
< 200 ft
Symboles :   Orages  Brouillard  Fortes neiges  Fortes précipitations  Vent > 20 kt






- Altitude de l'aérodrome : 81 ft
- Code IATA : TLH


KTLH - Tallahassee Regional

DERNIER METAR :
  • 250753Z AUTO 00000KT 10SM CLR 05/03 A3006 RMK AO2 SLP179 T00500033

METARs EXPIRÉS :
  • 250653Z AUTO 00000KT 10SM CLR 06/04 A3006 RMK AO2 SLP178 T00610044
  • 250553Z AUTO 00000KT 10SM CLR 08/06 A3006 RMK AO2 SLP177 T00830061 10178 20078 50005

TAF KTLH
Valide du 25 à 06h jusqu'au 26 à 06h UTC


250527Z 2506/2606 VRB03KT P6SM SKC
FM260500 00000KT P6SM BKN200



MET'MAP, la Météo Aéronautique d'un coup d'oeil ! - Copyright ORBIFLY Décembre 2007 - Disclaimer

ORBIFLY MET'MAP TEAM :

Programmation & Développement : Alexandra Zaïnal
Sur une idée originale de : Baudouin d'Aumeries
Assistance à la programmation : Marc-Olivier Méhu
Soutien technique & logistique : Manuel Goepfert

Contact : metmap@orbifly.com




SOURCES & CREDITS :

   NOAA       Earth
Advisory